Flight Track Log - Related Links

Times and Time Zones

All times are in EDT time to prevent confusion due to time zone crossing. See the SWA1223 flight status page for this flight to view local times or setup timezone preferences in your user account.

Time Position Orientation Groundspeed Altitude Reporting Facility
EDT Latitude Longitude Course Direction KTS MPH feet Rate Location/Type
Sat 10:15:14 AM 32.8000 -96.8000 12° North 189 217 3,700  Level Dallas / Fort Worth TRACON
Sat 10:16:08 AM 32.7667 -96.7333 121° Southeast 252 290 5,500 2,517 Climbing Dallas / Fort Worth TRACON
Sat 10:18:08 AM 32.9131 -96.7428 357° North 321 369 11,000 2,567 Climbing Fort Worth Center
Sat 10:19:08 AM 32.9906 -96.7967 330° Northwest 339 390 13,200 2,900 Climbing Fort Worth Center
Sat 10:20:00 AM 33.4327 -96.6543 12° North  Level FlightAware Approximate
Sat 10:20:08 AM 33.0931 -96.8656 331° Northwest 374 430 16,800  Level Fort Worth Center
Sat 10:21:08 AM 33.1872 -96.9294 330° Northwest 388 447 19,800 2,900 Climbing Fort Worth Center
Sat 10:22:08 AM 33.2856 -96.9983 330° Northwest 399 459 22,600 2,200 Climbing Fort Worth Center
Sat 10:23:08 AM 33.4108 -97.0128 355° North 427 491 24,200 2,050 Climbing Fort Worth Center
Sat 10:24:08 AM 33.5403 -96.9697 15° North 450 518 26,700 2,200 Climbing Fort Worth Center
Sat 10:25:08 AM 33.6717 -96.9292 14° North 473 544 28,600 1,950 Climbing Fort Worth Center
Sat 10:26:08 AM 33.7883 -96.9011 11° North 473 544 30,600 1,950 Climbing Fort Worth Center
Sat 10:27:08 AM 33.9217 -96.8753 North 473 544 32,500 1,650 Climbing Fort Worth Center
Sat 10:28:08 AM 34.0553 -96.8519 North 480 552 33,900 1,650 Climbing Fort Worth Center
Sat 10:29:08 AM 34.2011 -96.8258 North 480 552 35,800 1,600 Climbing Fort Worth Center
Sat 10:30:08 AM 34.3347 -96.7997 North 480 552 37,100 1,100 Climbing Fort Worth Center
Sat 10:31:08 AM 34.4700 -96.7736 North 485 558 38,000 950 Climbing Fort Worth Center
Sat 10:32:08 AM 34.6033 -96.7272 16° North 485 558 39,000 500 Climbing Fort Worth Center
Sat 10:33:08 AM 34.7367 -96.6783 17° North 491 565 39,000  Level Fort Worth Center
Sat 10:34:08 AM 34.8678 -96.6292 17° North 491 565 39,000  Level Fort Worth Center
Sat 10:35:08 AM 34.9989 -96.5797 17° North 491 565 39,000  Level Fort Worth Center
Sat 10:36:08 AM 35.1300 -96.5300 17° North 496 571 39,000  Level Fort Worth Center
Sat 10:37:08 AM 35.2653 -96.4831 16° North 496 571 39,000  Level Fort Worth Center
Sat 10:39:33 AM 35.5694 -96.3692 17° North 489 563 39,000  Level Kansas City Center
Sat 10:40:34 AM 35.6994 -96.3214 17° North 489 563 39,000  Level Kansas City Center
Sat 10:41:35 AM 35.8406 -96.2711 16° North 486 559 39,000  Level Kansas City Center
Sat 10:42:36 AM 35.9700 -96.2231 17° North 484 557 39,000  Level Kansas City Center
Sat 10:43:39 AM 36.0994 -96.1758 16° North 483 556 39,000  Level Kansas City Center
Sat 10:44:40 AM 36.2292 -96.1261 17° North 483 556 39,000  Level Kansas City Center
Sat 10:45:40 AM 36.3575 -96.0783 17° North 480 552 39,000  Level Kansas City Center
Sat 10:46:44 AM 36.4872 -96.0300 17° North 480 552 39,000  Level Kansas City Center
Sat 10:47:45 AM 36.6167 -95.9803 17° North 481 554 39,000  Level Kansas City Center
Sat 10:48:45 AM 36.7467 -95.9308 17° North 483 556 39,000  Level Kansas City Center
Sat 10:49:47 AM 36.8775 -95.8822 17° North 484 557 39,000  Level Kansas City Center
Sat 10:50:50 AM 37.0058 -95.8342 17° North 479 551 39,000  Level Kansas City Center
Sat 10:51:52 AM 37.1617 -95.7739 17° North 482 555 39,000  Level Kansas City Center
Sat 10:52:52 AM 37.2911 -95.7244 17° North 485 558 39,000  Level Kansas City Center
Sat 10:53:53 AM 37.4189 -95.6739 17° North 482 555 39,000  Level Kansas City Center
Sat 10:54:54 AM 37.5472 -95.6228 18° North 481 554 39,000  Level Kansas City Center
Sat 10:55:58 AM 37.6742 -95.5794 15° North 474 545 39,000 -336 Level Kansas City Center
Sat 10:56:59 AM 37.8039 -95.5664 North 466 536 38,300 -1,339 Descending Kansas City Center
Sat 10:57:59 AM 37.9408 -95.5492 North 453 521 36,300 -2,182 Descending Kansas City Center
Sat 10:59:00 AM 38.0747 -95.5311 North 464 534 33,900 -2,688 Descending Kansas City Center
Sat 11:00:04 AM 38.1992 -95.5108 North 469 540 30,700 -2,784 Descending Kansas City Center
Sat 11:01:05 AM 38.3200 -95.4933 North 460 529 28,100 -2,231 Descending Kansas City Center
Sat 11:02:05 AM 38.4486 -95.4739 North 407 468 26,200 -2,226 Descending Kansas City Center
Sat 11:03:09 AM 38.5483 -95.4611 North 379 436 23,500 -2,592 Descending Kansas City Center
Sat 11:04:10 AM 38.6428 -95.5064 339° North 319 367 20,800 -2,656 Descending Kansas City Center
Sat 11:05:11 AM 38.7281 -95.5006 North 344 396 18,100 -2,213 Descending Kansas City Center
Sat 11:06:12 AM 38.8156 -95.4086 39° Northeast 363 418 16,300 -1,452 Descending Kansas City Center
Sat 11:07:15 AM 38.8775 -95.3194 48° Northeast 350 403 15,100 -1,355 Descending Kansas City Center
Sat 11:08:16 AM 38.9369 -95.2356 48° Northeast 336 387 13,500 -1,537 Descending Kansas City Center
Sat 11:09:16 AM 39.0044 -95.1392 48° Northeast 328 377 12,000 -968 Descending Kansas City Center
Sat 11:10:20 AM 39.0611 -95.0586 48° Northeast 320 368 11,500 -762 Descending Kansas City Center
Sat 11:11:22 AM 39.1286 -94.9631 48° Northeast 326 375 10,400 -726 Descending Kansas City Center
Sat 11:12:24 AM 39.1833 -94.8839 48° Northeast 311 358 10,000 -732 Descending Kansas City Center
Sat 11:13:25 AM 39.2542 -94.8369 27° Northeast 259 298 8,900 -1,131 Descending Kansas City Center
Sat 11:14:26 AM 39.3158 -94.8058 21° North 251 289 7,700 -1,475 Descending Kansas City Center
Sat 11:15:27 AM 39.3869 -94.7956 North 231 266 5,900 -1,623 Descending Kansas City Center
Sat 11:16:28 AM 39.4469 -94.7931 North 225 259 4,400 -1,248 Descending Kansas City Center
Sat 11:17:32 AM 39.4417 -94.7158 95° East 215 247 3,300 -912 Descending Kansas City Center
Sat 11:18:33 AM 39.3969 -94.6986 163° South 186 214 2,500 -732 Descending Kansas City Center
Sat 11:19:35 AM 39.3606 -94.7094 193° South 147 169 1,800 -780 Descending Kansas City Center
Sat 11:20:36 AM 39.3203 -94.7217 193° South 133 153 900 -885 Descending Kansas City Center

Login

Don't have an account? Register now (free) for customized features, flight alerts, and more!